Huvudsida
METAR-TAF:

METAR-TAF

Flygplatser :

Raja Bhoj International Airport

Bhopal, Indien

latitud: 23-17-15N, longitud: 77-20-15E, höjd: 524 m

Aktuellt väderrapport

Denna rapport gjordes för 35 minuter sedan, klockan 09:30 UTC
Vind 8 kt från ost
Temperatur 40°C
Fuktighet 20%
Tryck 1004 hPa
Sikt: 6000 m

METAR: VABP 200930Z 10008KT 6000 NSC 40/13 Q1004 NOSIG

Tid: 15:35 (10:05 UTC)

Väderprognos

Denna rapport gjordes för 2 timmar och 5 minuter sedan, klockan 08:00 UTC
Prognos gäller från 20 kl. 09 UTC till 20 kl. 18 UTC
Vind 8 kt från ost
Sikt: 6000 m
Få moln på en höjd av 2000 ft
Spridda moln på en höjd av 10000 ft
Blir
från 20 kl. 16 UTC till 20 kl. 18 UTC
Vind 8 kt från sydväst
Sikt: 6000 m
Spridda moln på en höjd av 10000 ft

TAF: VABP 200800Z 2009/2018 09008KT 6000 FEW020 SCT100 BECMG 2016/2018 23008KT 6000 SCT100

Aktuella väderrapporter och prognoser från 4000 flygplatser (METAR- och TAF-rapporter).

De tillgängliga stationerna syns som gula och röda prickar på kartan.

För musen över prickarna för att se namnen på stationerna.

Klicka sedan för att få väderrapporter och prognoser.

För att ändra kartan: Klicka på de gröna knapparna med ett svart kors på för att zooma in; den gröna knappen med ett streck på för att zooma ut; eller på de gröna pilarna för angränsande kartor.


METAR-TAF: